createdAt,value
2017-09-13T00:00:45.275Z,99757.73
2017-09-13T00:03:12.418Z,99749.91
2017-09-13T00:05:39.576Z,99743.38
2017-09-13T00:08:06.731Z,99736.43
2017-09-13T00:10:33.879Z,99737.25
2017-09-13T00:13:01.017Z,99730.72
2017-09-13T00:15:28.156Z,99733.81
2017-09-13T00:17:55.306Z,99719.86
2017-09-13T00:20:22.473Z,99714.23
2017-09-13T00:22:49.627Z,99708.59
2017-09-13T00:25:16.761Z,99708.17
2017-09-13T00:27:43.911Z,99682.47
2017-09-13T00:30:11.570Z,99681.99
2017-09-13T00:32:38.731Z,99678.08
2017-09-13T00:35:05.882Z,99652.84
2017-09-13T00:37:33.022Z,99629.34
2017-09-13T00:40:00.184Z,99619.78
2017-09-13T00:42:27.339Z,99624.12
2017-09-13T00:44:54.500Z,99614.15
2017-09-13T00:47:21.657Z,99610.17
2017-09-13T00:49:48.794Z,99604.94
2017-09-13T00:52:15.941Z,99593.19
2017-09-13T00:54:43.103Z,99582.81
2017-09-13T00:57:10.251Z,99575.39
2017-09-13T00:59:37.405Z,99568.86
2017-09-13T01:02:04.558Z,99563.63
2017-09-13T01:04:31.698Z,99553.19
2017-09-13T01:06:58.863Z,99540.12
2017-09-13T01:09:26.001Z,99519.23
2017-09-13T01:11:53.138Z,99509.27
2017-09-13T01:14:20.299Z,99507.48
2017-09-13T01:16:47.460Z,99505.34
2017-09-13T01:19:14.617Z,99489.20
2017-09-13T01:21:41.757Z,99489.61
2017-09-13T01:24:08.897Z,99467.00
2017-09-13T01:26:36.081Z,99460.95
2017-09-13T01:29:03.236Z,99458.34
2017-09-13T01:31:30.394Z,99463.56
2017-09-13T01:33:57.534Z,99439.16
2017-09-13T01:36:24.695Z,99431.33
2017-09-13T01:38:51.862Z,99434.02
2017-09-13T01:41:19.004Z,99429.20
2017-09-13T01:43:46.155Z,99415.25
2017-09-13T01:46:13.292Z,99411.74
2017-09-13T01:48:40.434Z,99396.48
2017-09-13T01:51:07.573Z,99400.89
2017-09-13T01:53:34.705Z,99399.58
2017-09-13T01:56:01.847Z,99412.64
2017-09-13T01:58:29.002Z,99418.34
2017-09-13T02:00:56.136Z,99426.11
2017-09-13T02:03:23.273Z,99436.97
2017-09-13T02:05:50.424Z,99428.23
2017-09-13T02:08:17.585Z,99421.30
2017-09-13T02:10:44.726Z,99425.22
2017-09-13T02:13:11.882Z,99392.57
2017-09-13T02:15:39.803Z,99360.89
2017-09-13T02:18:06.947Z,99342.61
2017-09-13T02:20:34.095Z,99329.55
2017-09-13T02:23:01.254Z,99318.28
2017-09-13T02:25:28.407Z,99325.22
2017-09-13T02:27:55.559Z,99318.20
2017-09-13T02:30:22.716Z,99296.91
2017-09-13T02:32:49.855Z,99293.40
2017-09-13T02:35:17.006Z,99287.77
2017-09-13T02:37:44.145Z,99259.94
2017-09-13T02:40:11.284Z,99240.34
2017-09-13T02:42:38.421Z,99250.31
2017-09-13T02:45:05.576Z,99239.37
2017-09-13T02:47:32.741Z,99218.97
2017-09-13T02:49:59.891Z,99219.86
2017-09-13T02:52:27.048Z,99216.91
2017-09-13T02:54:54.190Z,99212.10
2017-09-13T02:57:21.352Z,99205.50
2017-09-13T02:59:48.506Z,99197.25
2017-09-13T03:02:15.650Z,99186.40
2017-09-13T03:04:42.799Z,99171.21
2017-09-13T03:07:09.968Z,99173.83
2017-09-13T03:09:37.105Z,99154.17
2017-09-13T03:12:04.245Z,99150.66
2017-09-13T03:14:31.382Z,99136.30
2017-09-13T03:16:58.525Z,99134.99
2017-09-13T03:19:25.662Z,99126.82
2017-09-13T03:21:52.819Z,99128.54
2017-09-13T03:24:19.979Z,99116.79
2017-09-13T03:26:47.121Z,99112.45
2017-09-13T03:29:14.288Z,99128.95
2017-09-13T03:31:41.450Z,99115.00
2017-09-13T03:34:08.593Z,99110.19
2017-09-13T03:36:35.755Z,99107.16
2017-09-13T03:39:02.894Z,99088.89
2017-09-13T03:41:30.055Z,99077.62
2017-09-13T03:43:57.197Z,99061.95
2017-09-13T03:46:24.349Z,99079.34
2017-09-13T03:48:51.489Z,99051.09
2017-09-13T03:51:18.645Z,99054.52
2017-09-13T03:53:45.800Z,99044.91
2017-09-13T03:56:12.956Z,99035.42
2017-09-13T03:58:40.112Z,99029.31
2017-09-13T04:01:07.252Z,99029.31
2017-09-13T04:03:34.407Z,99028.41
2017-09-13T04:06:01.547Z,99025.39
2017-09-13T04:08:28.695Z,99012.34
2017-09-13T04:10:55.834Z,99015.77
2017-09-13T04:13:22.994Z,98983.61
2017-09-13T04:15:50.133Z,98981.89
2017-09-13T04:18:17.273Z,98985.81
2017-09-13T04:20:44.428Z,98958.80
2017-09-13T04:23:11.566Z,98970.22
2017-09-13T04:25:38.701Z,98961.48
2017-09-13T04:28:05.888Z,98962.31
2017-09-13T04:30:33.030Z,98961.48
2017-09-13T04:33:00.183Z,98964.09
2017-09-13T04:35:27.426Z,98959.29
2017-09-13T04:37:55.351Z,98943.14
2017-09-13T04:40:22.503Z,98948.44
2017-09-13T04:42:49.680Z,98939.70
2017-09-13T04:45:16.975Z,98940.53
2017-09-13T04:47:44.118Z,98942.31
2017-09-13T04:50:11.263Z,98941.49
2017-09-13T04:52:38.402Z,98937.09
2017-09-13T04:55:06.309Z,98931.46
2017-09-13T04:57:33.441Z,98935.38
2017-09-13T05:00:00.603Z,98937.50
2017-09-13T05:02:27.756Z,98942.31
2017-09-13T05:04:54.916Z,98926.65
2017-09-13T05:07:22.076Z,98919.71
2017-09-13T05:09:49.230Z,98928.85
2017-09-13T05:12:16.365Z,98926.65
2017-09-13T05:14:43.505Z,98920.20
2017-09-13T05:17:10.646Z,98918.89
2017-09-13T05:19:37.808Z,98930.16
2017-09-13T05:22:04.968Z,98926.65
2017-09-13T05:24:32.101Z,98921.84
2017-09-13T05:26:59.255Z,98913.11
2017-09-13T05:29:26.394Z,98904.45
2017-09-13T05:31:53.551Z,98911.47
2017-09-13T05:34:20.694Z,98909.75
2017-09-13T05:36:47.853Z,98912.28
2017-09-13T05:39:14.994Z,98910.58
2017-09-13T05:41:42.153Z,98910.09
2017-09-13T05:44:09.324Z,98890.17
2017-09-13T05:46:36.497Z,98884.95
2017-09-13T05:49:03.641Z,98889.27
2017-09-13T05:51:30.796Z,98881.84
2017-09-13T05:53:57.940Z,98885.77
2017-09-13T05:56:25.102Z,98894.42
2017-09-13T05:58:52.260Z,98890.58
2017-09-13T06:01:19.401Z,98887.56
2017-09-13T06:03:46.541Z,98883.64
2017-09-13T06:06:13.677Z,98879.65
2017-09-13T06:08:40.814Z,98887.08
2017-09-13T06:11:07.962Z,98892.30
2017-09-13T06:13:35.102Z,98900.54
2017-09-13T06:16:02.256Z,98889.68
2017-09-13T06:18:29.398Z,98885.77
2017-09-13T06:20:56.537Z,98899.23
2017-09-13T06:23:23.695Z,98896.20
2017-09-13T06:25:50.843Z,98899.23
2017-09-13T06:28:17.977Z,98899.72
2017-09-13T06:30:45.122Z,98894.50
2017-09-13T06:33:12.265Z,98896.20
2017-09-13T06:35:39.423Z,98907.89
2017-09-13T06:38:06.560Z,98904.45
2017-09-13T06:40:33.702Z,98910.58
2017-09-13T06:43:00.859Z,98901.84
2017-09-13T06:45:28.016Z,98900.95
2017-09-13T06:47:55.158Z,98901.84
2017-09-13T06:50:22.305Z,98883.56
2017-09-13T06:52:49.441Z,98890.17
2017-09-13T06:55:16.585Z,98899.72
2017-09-13T06:57:43.722Z,98891.40
2017-09-13T07:00:10.875Z,98903.56
2017-09-13T07:02:38.047Z,98904.05
2017-09-13T07:05:05.208Z,98891.88
2017-09-13T07:07:32.357Z,98884.46
2017-09-13T07:09:59.511Z,98897.52
2017-09-13T07:12:26.649Z,98893.60
2017-09-13T07:14:54.562Z,98895.80
2017-09-13T07:17:21.719Z,98892.78
2017-09-13T07:19:48.871Z,98883.64
2017-09-13T07:22:16.010Z,98867.48
2017-09-13T07:24:43.154Z,98847.98
2017-09-13T07:27:10.345Z,98874.50
2017-09-13T07:29:37.477Z,98871.00
2017-09-13T07:32:04.632Z,98874.50
2017-09-13T07:34:31.797Z,98873.20
2017-09-13T07:36:58.941Z,98895.39
2017-09-13T07:39:26.083Z,98887.97
2017-09-13T07:41:53.245Z,98871.48
2017-09-13T07:44:20.397Z,98874.09
2017-09-13T07:46:47.568Z,98909.27
2017-09-13T07:49:15.491Z,98866.59
2017-09-13T07:51:42.633Z,98881.92
2017-09-13T07:54:09.784Z,98886.25
2017-09-13T07:56:36.931Z,98897.11
2017-09-13T07:59:04.070Z,98878.01
2017-09-13T08:01:31.228Z,98894.56
2017-09-13T08:03:58.385Z,98878.42
2017-09-13T08:06:25.545Z,98900.61
2017-09-13T08:08:52.691Z,98902.41
2017-09-13T08:11:19.839Z,98895.39
2017-09-13T08:13:46.997Z,98908.86
2017-09-13T08:16:14.133Z,98913.26
2017-09-13T08:18:41.296Z,98916.28
2017-09-13T08:21:08.453Z,98924.59
2017-09-13T08:23:35.608Z,98910.64
2017-09-13T08:26:02.768Z,98923.30
2017-09-13T08:28:29.910Z,98924.19
2017-09-13T08:30:57.067Z,98925.49
2017-09-13T08:33:24.219Z,98924.59
2017-09-13T08:35:51.352Z,98930.64
2017-09-13T08:38:18.495Z,98928.92
2017-09-13T08:40:45.642Z,98918.89
2017-09-13T08:43:12.807Z,98924.94
2017-09-13T08:45:39.944Z,98953.66
2017-09-13T08:48:07.095Z,98931.95
2017-09-13T08:50:34.251Z,98936.27
2017-09-13T08:53:01.408Z,98930.16
2017-09-13T08:55:28.578Z,98941.08
2017-09-13T08:57:55.773Z,98945.41
2017-09-13T09:00:22.920Z,98957.64
2017-09-13T09:02:50.053Z,98938.88
2017-09-13T09:05:17.192Z,98957.64
2017-09-13T09:07:44.338Z,98952.42
2017-09-13T09:10:11.482Z,98954.55
2017-09-13T09:12:38.639Z,98957.16
2017-09-13T09:15:05.778Z,98955.03
2017-09-13T09:17:32.918Z,98968.50
2017-09-13T09:20:00.078Z,98981.56
2017-09-13T09:22:27.217Z,98974.62
2017-09-13T09:24:54.361Z,98974.55
2017-09-13T09:27:21.515Z,98967.27
2017-09-13T09:29:48.658Z,98962.87
2017-09-13T09:32:15.797Z,98975.85
2017-09-13T09:34:42.964Z,98986.37
2017-09-13T09:37:10.105Z,98942.39
2017-09-13T09:39:37.288Z,98973.31
2017-09-13T09:42:04.447Z,98963.28
2017-09-13T09:44:31.586Z,98972.01
2017-09-13T09:46:58.744Z,98978.53
2017-09-13T09:49:25.881Z,98982.38
2017-09-13T09:51:53.035Z,98992.00
2017-09-13T09:54:20.199Z,98984.98
2017-09-13T09:56:47.352Z,99004.23
2017-09-13T09:59:14.508Z,98987.19
2017-09-13T10:01:41.653Z,99005.88
2017-09-13T10:04:08.828Z,98981.56
2017-09-13T10:06:35.969Z,98988.02
2017-09-13T10:09:03.125Z,99008.56
2017-09-13T10:11:30.273Z,99025.05
2017-09-13T10:13:57.432Z,98998.53
2017-09-13T10:16:24.592Z,98996.74
2017-09-13T10:18:51.729Z,98995.02
2017-09-13T10:21:18.883Z,98998.53
2017-09-13T10:23:46.044Z,99001.55
2017-09-13T10:26:13.200Z,99005.47
2017-09-13T10:28:40.355Z,99004.16
2017-09-13T10:31:07.806Z,98995.09
2017-09-13T10:33:34.968Z,99012.89
2017-09-13T10:36:02.106Z,99019.83
2017-09-13T10:38:29.245Z,99030.76
2017-09-13T10:40:56.403Z,99028.97
2017-09-13T10:43:24.560Z,99030.28
2017-09-13T10:45:51.721Z,99035.91
2017-09-13T10:48:18.877Z,99039.41
2017-09-13T10:50:46.031Z,99051.17
2017-09-13T10:53:13.171Z,99046.84
2017-09-13T10:55:40.320Z,99072.05
2017-09-13T10:58:07.461Z,99074.19
2017-09-13T11:00:34.598Z,99053.77
2017-09-13T11:03:01.743Z,99070.75
2017-09-13T11:05:28.904Z,99057.28
2017-09-13T11:07:56.093Z,99077.69
2017-09-13T11:10:23.247Z,99062.91
2017-09-13T11:12:50.404Z,99077.69
2017-09-13T11:15:17.542Z,99105.93
2017-09-13T11:17:44.685Z,99087.24
2017-09-13T11:20:11.841Z,99100.30
2017-09-13T11:22:38.982Z,99093.43
2017-09-13T11:25:06.321Z,99100.30
2017-09-13T11:27:33.460Z,99105.59
2017-09-13T11:30:00.621Z,99086.91
2017-09-13T11:32:27.774Z,99095.56
2017-09-13T11:34:54.914Z,99107.31
2017-09-13T11:37:22.061Z,99104.22
2017-09-13T11:39:49.204Z,99116.86
2017-09-13T11:42:16.337Z,99121.67
2017-09-13T11:44:43.503Z,99112.53
2017-09-13T11:47:10.642Z,99122.08
2017-09-13T11:49:37.800Z,99137.75
2017-09-13T11:52:04.953Z,99129.98
2017-09-13T11:54:32.113Z,99136.03
2017-09-13T11:56:59.268Z,99145.24
2017-09-13T11:59:26.423Z,99158.71
2017-09-13T12:01:53.577Z,99169.98
2017-09-13T12:04:20.722Z,99165.17
2017-09-13T12:06:47.875Z,99164.76
2017-09-13T12:09:15.058Z,99156.03
2017-09-13T12:11:42.193Z,99162.14
2017-09-13T12:14:09.348Z,99175.20
2017-09-13T12:16:36.482Z,99161.73
2017-09-13T12:19:03.640Z,99158.30
2017-09-13T12:21:30.785Z,99153.91
2017-09-13T12:23:57.944Z,99157.81
2017-09-13T12:26:25.087Z,99152.19
2017-09-13T12:28:52.244Z,99155.28
2017-09-13T12:31:19.382Z,99158.71
2017-09-13T12:33:46.521Z,99162.70
2017-09-13T12:36:13.661Z,99176.17
2017-09-13T12:38:40.820Z,99171.77
2017-09-13T12:41:07.957Z,99187.84
2017-09-13T12:43:35.112Z,99198.30
2017-09-13T12:46:02.280Z,99183.03
2017-09-13T12:48:29.444Z,99197.47
2017-09-13T12:50:56.591Z,99201.31
2017-09-13T12:53:23.768Z,99197.47
2017-09-13T12:55:50.914Z,99199.19
2017-09-13T12:58:18.058Z,99197.06
2017-09-13T13:00:45.194Z,99190.05
2017-09-13T13:03:12.353Z,99193.55
2017-09-13T13:05:39.514Z,99191.83
2017-09-13T13:08:06.678Z,99209.15
2017-09-13T13:10:34.618Z,99203.59
2017-09-13T13:13:01.762Z,99189.16
2017-09-13T13:15:28.910Z,99204.89
2017-09-13T13:17:56.068Z,99207.84
2017-09-13T13:20:25.435Z,99200.49
2017-09-13T13:22:52.780Z,99209.63
2017-09-13T13:25:19.936Z,99198.78
2017-09-13T13:27:47.102Z,99213.14
2017-09-13T13:30:14.434Z,99212.72
2017-09-13T13:32:41.573Z,99216.57
2017-09-13T13:35:08.727Z,99214.38
2017-09-13T13:37:35.885Z,99218.36
2017-09-13T13:40:03.043Z,99234.44
2017-09-13T13:42:30.183Z,99240.55
2017-09-13T13:44:57.322Z,99229.70
2017-09-13T13:47:24.481Z,99230.52
2017-09-13T13:49:51.633Z,99228.88
2017-09-13T13:52:18.788Z,99234.52
2017-09-13T13:54:45.925Z,99238.91
2017-09-13T13:57:13.080Z,99227.16
2017-09-13T13:59:40.235Z,99225.85
2017-09-13T14:02:07.378Z,99244.13
2017-09-13T14:04:34.523Z,99238.91
2017-09-13T14:07:01.669Z,99237.60
2017-09-13T14:09:28.818Z,99250.73
2017-09-13T14:11:55.977Z,99241.52
2017-09-13T14:14:23.540Z,99246.33
2017-09-13T14:16:50.714Z,99246.27
2017-09-13T14:19:19.276Z,99249.28
2017-09-13T14:21:48.581Z,99254.51
2017-09-13T14:24:17.457Z,99249.28
2017-09-13T14:26:45.752Z,99259.73
2017-09-13T14:29:12.972Z,99252.86
2017-09-13T14:31:40.128Z,99257.59
2017-09-13T14:34:08.139Z,99259.31
2017-09-13T14:36:35.410Z,99258.02
2017-09-13T14:39:02.583Z,99264.13
2017-09-13T14:41:29.741Z,99267.15
2017-09-13T14:43:57.669Z,99274.09
2017-09-13T14:46:24.802Z,99268.87
2017-09-13T14:48:51.937Z,99254.09
2017-09-13T14:51:19.423Z,99251.00
2017-09-13T14:53:46.750Z,99261.03
2017-09-13T14:56:14.212Z,99265.91
2017-09-13T14:58:41.354Z,99265.02
2017-09-13T15:01:08.485Z,99258.91
2017-09-13T15:03:36.395Z,99264.54
2017-09-13T15:06:03.533Z,99251.48
2017-09-13T15:08:30.700Z,99248.46
2017-09-13T15:10:57.852Z,99249.77
2017-09-13T15:13:24.999Z,99249.28
2017-09-13T15:15:52.160Z,99250.11
2017-09-13T15:18:21.013Z,99241.86
2017-09-13T15:20:48.321Z,99239.25
2017-09-13T15:23:15.701Z,99244.06
2017-09-13T15:25:43.080Z,99249.28
2017-09-13T15:28:10.536Z,99260.55
2017-09-13T15:30:38.302Z,99254.92
2017-09-13T15:33:05.442Z,99253.13
2017-09-13T15:35:32.573Z,99247.98
2017-09-13T15:38:00.505Z,99241.45
2017-09-13T15:40:27.652Z,99240.97
2017-09-13T15:42:54.812Z,99234.44
2017-09-13T15:45:21.950Z,99234.03
2017-09-13T15:47:49.078Z,99233.20
2017-09-13T15:50:16.260Z,99235.81
2017-09-13T15:52:43.424Z,99238.84
2017-09-13T15:55:10.562Z,99240.55
2017-09-13T15:57:37.713Z,99232.38
2017-09-13T16:00:04.875Z,99237.12
2017-09-13T16:02:32.014Z,99236.23
2017-09-13T16:04:59.176Z,99241.45
2017-09-13T16:07:26.469Z,99238.02
2017-09-13T16:09:53.642Z,99230.59
2017-09-13T16:12:20.791Z,99228.47
2017-09-13T16:14:48.038Z,99229.28
2017-09-13T16:17:15.756Z,99230.59
2017-09-13T16:19:43.248Z,99230.59
2017-09-13T16:22:10.740Z,99227.98
2017-09-13T16:24:37.922Z,99229.70
2017-09-13T16:27:05.075Z,99232.38
2017-09-13T16:29:32.384Z,99230.18
2017-09-13T16:31:59.987Z,99238.02
2017-09-13T16:34:27.192Z,99243.65
2017-09-13T16:36:54.345Z,99233.20
2017-09-13T16:39:21.497Z,99243.23
2017-09-13T16:41:48.643Z,99237.19
2017-09-13T16:44:15.820Z,99234.99
2017-09-13T16:46:42.985Z,99238.84
2017-09-13T16:49:10.902Z,99245.37
2017-09-13T16:51:38.125Z,99242.83
2017-09-13T16:54:05.276Z,99241.94
2017-09-13T16:56:32.425Z,99230.59
2017-09-13T16:58:59.586Z,99228.39
2017-09-13T17:01:26.749Z,99242.83
2017-09-13T17:03:53.912Z,99239.73
2017-09-13T17:06:21.316Z,99231.48
2017-09-13T17:08:48.477Z,99233.69
2017-09-13T17:11:15.627Z,99233.20
2017-09-13T17:13:42.780Z,99233.20
2017-09-13T17:16:09.999Z,99239.73
2017-09-13T17:18:37.152Z,99244.55
2017-09-13T17:21:04.293Z,99251.97
2017-09-13T17:23:31.444Z,99255.41
2017-09-13T17:25:58.616Z,99249.28
2017-09-13T17:28:26.541Z,99238.02
2017-09-13T17:30:53.694Z,99238.42
2017-09-13T17:33:20.829Z,99235.41
2017-09-13T17:35:47.979Z,99227.16
2017-09-13T17:38:15.163Z,99231.08
2017-09-13T17:40:42.301Z,99231.48
2017-09-13T17:43:09.437Z,99220.22
2017-09-13T17:45:36.578Z,99229.28
2017-09-13T17:48:03.728Z,99225.92
2017-09-13T17:50:30.897Z,99218.91
2017-09-13T17:52:58.041Z,99219.81
2017-09-13T17:55:25.676Z,99220.29
2017-09-13T17:57:54.279Z,99216.37
2017-09-13T18:00:23.724Z,99219.88
2017-09-13T18:02:51.955Z,99218.09
2017-09-13T18:05:19.192Z,99219.39
2017-09-13T18:07:46.630Z,99212.05
2017-09-13T18:10:14.416Z,99222.48
2017-09-13T18:12:41.614Z,99219.09
2017-09-13T18:15:08.784Z,99215.55
2017-09-13T18:17:35.941Z,99212.55
2017-09-13T18:20:03.101Z,99214.24
2017-09-13T18:22:30.253Z,99215.06
2017-09-13T18:24:57.833Z,99223.89
2017-09-13T18:27:25.024Z,99228.23
2017-09-13T18:29:52.281Z,99223.89
2017-09-13T18:32:19.426Z,99227.40
2017-09-13T18:34:46.588Z,99229.02
2017-09-13T18:37:13.733Z,99236.95
2017-09-13T18:39:41.488Z,99223.08
2017-09-13T18:42:08.900Z,99229.60
2017-09-13T18:44:36.121Z,99230.91
2017-09-13T18:47:03.291Z,99230.08
2017-09-13T18:49:30.908Z,99226.58
2017-09-13T18:51:59.710Z,99223.08
2017-09-13T18:54:26.959Z,99228.30
2017-09-13T18:56:54.656Z,99228.30
2017-09-13T18:59:22.329Z,99227.88
2017-09-13T19:01:49.808Z,99232.21
2017-09-13T19:04:17.333Z,99232.63
2017-09-13T19:06:45.014Z,99227.47
2017-09-13T19:09:12.176Z,99230.02
2017-09-13T19:11:39.514Z,99230.49
2017-09-13T19:14:06.684Z,99230.08
2017-09-13T19:16:33.843Z,99222.66
2017-09-13T19:19:01.070Z,99229.19
2017-09-13T19:21:28.232Z,99230.49
2017-09-13T19:23:55.868Z,99225.34
2017-09-13T19:26:23.062Z,99232.28
2017-09-13T19:28:50.732Z,99231.45
2017-09-13T19:31:18.028Z,99240.11
2017-09-13T19:33:45.642Z,99242.73
2017-09-13T19:36:12.803Z,99245.75
2017-09-13T19:38:39.959Z,99239.70
2017-09-13T19:41:07.097Z,99241.01
2017-09-13T19:43:34.240Z,99243.14
2017-09-13T19:46:01.382Z,99244.10
2017-09-13T19:48:28.771Z,99237.50
2017-09-13T19:50:55.953Z,99241.56
2017-09-13T19:53:23.093Z,99232.28
2017-09-13T19:55:50.592Z,99233.66
2017-09-13T19:58:18.400Z,99225.41
2017-09-13T20:00:45.784Z,99231.53
2017-09-13T20:03:13.034Z,99228.98
2017-09-13T20:05:40.209Z,99234.20
2017-09-13T20:08:07.360Z,99231.12
2017-09-13T20:10:34.498Z,99238.87
2017-09-13T20:13:02.072Z,99233.80
2017-09-13T20:15:29.489Z,99247.27
2017-09-13T20:17:56.644Z,99241.97
2017-09-13T20:20:23.776Z,99235.92
2017-09-13T20:22:51.681Z,99230.70
2017-09-13T20:25:18.828Z,99231.53
2017-09-13T20:27:45.980Z,99240.67
2017-09-13T20:30:13.139Z,99241.97
2017-09-13T20:32:40.292Z,99246.72
2017-09-13T20:35:07.430Z,99245.89
2017-09-13T20:37:34.577Z,99248.84
2017-09-13T20:40:01.728Z,99237.23
2017-09-13T20:42:28.883Z,99242.05
2017-09-13T20:44:56.043Z,99241.08
2017-09-13T20:47:23.204Z,99240.33
2017-09-13T20:49:50.337Z,99238.47
2017-09-13T20:52:17.548Z,99238.05
2017-09-13T20:54:44.716Z,99236.82
2017-09-13T20:57:11.857Z,99228.58
2017-09-13T20:59:39.024Z,99227.75
2017-09-13T21:02:06.168Z,99229.88
2017-09-13T21:04:33.319Z,99224.66
2017-09-13T21:07:00.452Z,99220.67
2017-09-13T21:09:27.585Z,99220.74
2017-09-13T21:11:55.609Z,99222.94
2017-09-13T21:14:22.782Z,99216.75
2017-09-13T21:16:49.922Z,99218.95
2017-09-13T21:19:17.058Z,99214.63
2017-09-13T21:21:44.208Z,99219.78
2017-09-13T21:24:11.371Z,99221.16
2017-09-13T21:26:38.556Z,99218.95
2017-09-13T21:29:05.730Z,99211.13
2017-09-13T21:31:32.878Z,99209.89
2017-09-13T21:34:00.022Z,99203.77
2017-09-13T21:36:27.153Z,99202.88
2017-09-13T21:38:54.371Z,99200.75
2017-09-13T21:41:21.505Z,99195.94
2017-09-13T21:43:48.651Z,99189.41
2017-09-13T21:46:15.803Z,99195.94
2017-09-13T21:48:42.966Z,99200.67
2017-09-13T21:51:10.111Z,99201.98
2017-09-13T21:53:37.261Z,99194.08
2017-09-13T21:56:04.406Z,99201.98
2017-09-13T21:58:31.599Z,99203.22
2017-09-13T22:00:58.731Z,99204.45
2017-09-13T22:03:25.889Z,99199.78
2017-09-13T22:05:53.034Z,99192.43
2017-09-13T22:08:20.188Z,99190.64
2017-09-13T22:10:47.340Z,99184.53
2017-09-13T22:13:14.488Z,99184.12
2017-09-13T22:15:41.648Z,99185.91
2017-09-13T22:18:08.781Z,99176.70
2017-09-13T22:20:35.923Z,99179.79
2017-09-13T22:23:03.056Z,99171.13
2017-09-13T22:25:30.201Z,99173.27
2017-09-13T22:35:34.845Z,99165.02
2017-09-13T22:38:02.728Z,99171.06
2017-09-13T22:40:29.839Z,99174.16
2017-09-13T22:42:57.005Z,99190.16
2017-09-13T22:45:24.167Z,99204.86
2017-09-13T22:47:51.335Z,99210.91
2017-09-13T22:50:18.473Z,99217.03
2017-09-13T22:52:45.629Z,99205.34
2017-09-13T22:55:12.810Z,99199.30
2017-09-13T22:57:39.962Z,99188.92
2017-09-13T23:00:07.155Z,99185.49
2017-09-13T23:02:34.304Z,99187.21
2017-09-13T23:05:01.467Z,99188.11
2017-09-13T23:07:28.619Z,99184.59
2017-09-13T23:15:00.974Z,99199.09
2017-09-13T23:17:28.703Z,99199.44
2017-09-13T23:19:57.644Z,99200.67
2017-09-13T23:22:26.190Z,99199.38
2017-09-13T23:24:53.542Z,99196.76
2017-09-13T23:27:21.536Z,99204.11
2017-09-13T23:29:48.669Z,99207.13
2017-09-13T23:32:15.820Z,99206.23
2017-09-13T23:34:43.514Z,99206.72
2017-09-13T23:37:11.387Z,99203.22
2017-09-13T23:39:38.592Z,99217.98
2017-09-13T23:42:06.465Z,99214.63
2017-09-13T23:44:34.412Z,99223.21
2017-09-13T23:47:02.164Z,99221.56
2017-09-13T23:49:30.135Z,99228.91
2017-09-13T23:51:57.418Z,99227.20
2017-09-13T23:54:24.585Z,99235.38
2017-09-13T23:56:51.739Z,99238.87
2017-09-13T23:59:18.888Z,99248.50
